Time;durP1;ratioP1;P1;durP2;ratioP2;P2;SDS_P1;SDS_P2;PMS_P1;PMS_P2;Temp;Humidity;BMP_temperature;BMP_pressure;BME280_temperature;BME280_humidity;BME280_pressure;Samples;Min_cycle;Max_cycle;Signal;HPM_P1;HPM_P2
2022/08/31 00:04:28;;;;;;;20.53;11.50;;;;;;;19.24;96.07;100431.16;124786;1098;104541;-77
2022/08/31 00:07:00;;;;;;;19.20;11.20;;;;;;;19.25;96.46;100429.41;124753;1099;104369;-76
2022/08/31 00:09:31;;;;;;;18.73;10.97;;;;;;;19.21;96.41;100432.06;124765;1098;104342;-76
2022/08/31 00:12:03;;;;;;;19.97;10.63;;;;;;;19.20;95.98;100437.39;124787;1099;102204;-76
2022/08/31 00:14:34;;;;;;;18.17;11.30;;;;;;;19.18;96.18;100441.80;124763;1099;101892;-76
2022/08/31 00:17:05;;;;;;;23.67;11.17;;;;;;;19.18;96.50;100440.05;124807;1099;104233;-76
2022/08/31 00:19:36;;;;;;;19.40;11.17;;;;;;;19.19;96.60;100439.14;124838;1099;104262;-76
2022/08/31 00:22:08;;;;;;;21.43;11.20;;;;;;;19.18;96.43;100441.80;124731;1099;104054;-76
2022/08/31 00:24:39;;;;;;;23.03;12.23;;;;;;;19.20;97.09;100434.73;124789;1099;104268;-76
2022/08/31 00:27:14;;;;;;;18.60;11.57;;;;;;;19.25;97.61;100440.05;124819;1099;104157;-76
2022/08/31 00:29:47;;;;;;;29.73;12.30;;;;;;;19.30;97.83;100443.58;124790;1098;104709;-76
2022/08/31 00:32:21;;;;;;;22.17;12.37;;;;;;;19.33;98.00;100439.12;124828;1099;101880;-76
2022/08/31 00:34:55;;;;;;;20.50;12.57;;;;;;;19.35;97.57;100437.37;124724;1099;104153;-76
2022/08/31 00:37:28;;;;;;;22.17;13.23;;;;;;;19.36;98.07;100439.12;124764;1099;104510;-76
2022/08/31 00:39:59;;;;;;;23.47;13.00;;;;;;;19.36;97.82;100432.92;124724;1099;104253;-76
2022/08/31 00:42:32;;;;;;;25.27;13.37;;;;;;;19.36;97.58;100436.46;124794;1099;102098;-76
2022/08/31 00:45:04;;;;;;;21.93;12.93;;;;;;;19.38;97.39;100436.45;124818;1099;104172;-76
2022/08/31 00:47:37;;;;;;;23.60;13.67;;;;;;;19.39;97.74;100432.92;124735;1099;104182;-76
2022/08/31 00:50:14;;;;;;;21.60;13.67;;;;;;;19.46;98.91;100439.11;124740;1099;102152;-76
2022/08/31 00:52:49;;;;;;;22.77;13.67;;;;;;;19.47;98.15;100430.25;124751;1099;104189;-76
2022/08/31 00:55:23;;;;;;;24.73;14.07;;;;;;;19.49;98.16;100428.46;124820;1099;104160;-76
2022/08/31 00:57:58;;;;;;;23.20;14.17;;;;;;;19.49;98.65;100425.80;124707;1099;104316;-76
2022/08/31 01:00:31;;;;;;;25.10;14.37;;;;;;;19.52;99.48;100428.45;124758;1099;102822;-76
2022/08/31 01:03:06;;;;;;;25.07;13.97;;;;;;;19.57;99.00;100424.00;124774;1099;104172;-76
2022/08/31 01:05:38;;;;;;;23.33;14.77;;;;;;;19.63;99.46;100426.64;124765;1098;104297;-76
2022/08/31 01:08:10;;;;;;;23.10;14.70;;;;;;;19.57;99.81;100418.67;124792;1099;102165;-76
2022/08/31 01:10:44;;;;;;;23.63;14.83;;;;;;;19.61;99.02;100439.08;124778;1099;104149;-77
2022/08/31 01:13:17;;;;;;;23.83;14.67;;;;;;;19.63;99.78;100436.41;124773;1099;104208;-76
2022/08/31 01:15:55;;;;;;;24.47;14.40;;;;;;;19.60;98.53;100436.42;124736;1099;104256;-76
2022/08/31 01:18:26;;;;;;;25.40;13.87;;;;;;;19.61;99.62;100444.41;124738;1099;102961;-76
2022/08/31 01:21:04;;;;;;;23.60;13.97;;;;;;;19.60;99.06;100441.74;124801;1098;102821;-76
2022/08/31 01:23:41;;;;;;;24.77;14.70;;;;;;;19.57;99.30;100440.87;124773;1098;103599;-76
2022/08/31 01:26:16;;;;;;;22.93;14.80;;;;;;;19.56;99.30;100441.75;124766;1099;104255;-76
2022/08/31 01:28:48;;;;;;;29.90;16.33;;;;;;;19.58;99.33;100449.73;124784;1099;102756;-76
2022/08/31 01:31:25;;;;;;;28.55;16.80;;;;;;;19.61;99.74;100449.73;124719;1099;104316;-76
2022/08/31 01:33:58;;;;;;;26.50;16.20;;;;;;;19.57;99.86;100448.86;124747;1099;104185;-75
2022/08/31 01:36:31;;;;;;;23.90;15.23;;;;;;;19.56;99.27;100446.20;124765;1099;102807;-76
2022/08/31 01:39:02;;;;;;;25.17;15.60;;;;;;;19.54;99.81;100438.22;124713;1099;104233;-77
2022/08/31 01:41:34;;;;;;;29.70;16.27;;;;;;;19.56;100.00;100441.75;124757;1099;104204;-75
2022/08/31 01:44:06;;;;;;;23.50;15.40;;;;;;;19.56;100.00;100436.43;124741;1099;104382;-76
2022/08/31 01:46:37;;;;;;;26.63;16.93;;;;;;;19.59;100.00;100440.87;124826;1099;102045;-75
2022/08/31 01:49:09;;;;;;;29.40;16.67;;;;;;;19.61;100.00;100441.74;124786;1099;102635;-76
2022/08/31 01:51:40;;;;;;;22.77;15.47;;;;;;;19.60;100.00;100441.74;124808;1099;102935;-76
2022/08/31 01:54:12;;;;;;;30.47;16.63;;;;;;;19.55;100.00;100439.97;124824;1098;104038;-76
2022/08/31 01:56:46;;;;;;;26.37;15.90;;;;;;;19.52;99.66;100447.08;124668;1099;104188;-76
2022/08/31 01:59:22;;;;;;;27.03;16.57;;;;;;;19.49;99.61;100439.10;124778;1099;104188;-76
2022/08/31 02:02:16;;;;;;;29.70;16.67;;;;;;;19.49;100.00;100441.77;124714;1099;102798;-76
2022/08/31 02:04:48;;;;;;;27.47;16.83;;;;;;;19.49;100.00;100436.44;124699;1099;104323;-76
2022/08/31 02:07:19;;;;;;;27.20;16.27;;;;;;;19.48;100.00;100443.55;124769;1099;104080;-75
2022/08/31 02:09:50;;;;;;;26.43;16.27;;;;;;;19.48;100.00;100442.67;124680;1099;104236;-76
2022/08/31 02:12:21;;;;;;;25.87;16.23;;;;;;;19.46;100.00;100440.02;124742;1099;102341;-76
2022/08/31 02:14:52;;;;;;;28.27;16.87;;;;;;;19.45;100.00;100448.00;124783;1099;104264;-75
2022/08/31 02:17:24;;;;;;;28.23;17.03;;;;;;;19.44;100.00;100449.75;124736;1099;104392;-76
2022/08/31 02:19:55;;;;;;;28.50;16.93;;;;;;;19.45;100.00;100454.20;124758;1099;104178;-76
2022/08/31 02:22:26;;;;;;;28.67;17.30;;;;;;;19.44;100.00;100452.41;124798;1099;104309;-76
2022/08/31 02:24:58;;;;;;;28.23;16.70;;;;;;;19.44;100.00;100452.41;124773;1099;104187;-76
2022/08/31 02:27:29;;;;;;;30.20;16.50;;;;;;;19.40;100.00;100448.88;124838;1099;104248;-76
2022/08/31 02:30:01;;;;;;;32.57;17.67;;;;;;;19.39;100.00;100449.77;124696;1099;104147;-76
2022/08/31 02:32:32;;;;;;;30.33;17.23;;;;;;;19.41;100.00;100452.42;124765;1099;104204;-76
2022/08/31 02:35:04;;;;;;;29.07;17.50;;;;;;;19.40;100.00;100446.22;124688;1099;102938;-76
2022/08/31 02:37:35;;;;;;;27.80;17.00;;;;;;;19.39;100.00;100447.10;124760;1099;104188;-76
2022/08/31 02:40:11;;;;;;;28.80;17.73;;;;;;;19.38;100.00;100441.78;124819;1099;103264;-75
2022/08/31 02:42:43;;;;;;;28.60;17.73;;;;;;;19.36;100.00;100443.56;124349;1099;104150;-76
2022/08/31 02:45:14;;;;;;;29.07;17.07;;;;;;;19.33;100.00;100439.12;124705;1099;104245;-76
2022/08/31 02:47:45;;;;;;;28.87;17.37;;;;;;;19.32;100.00;100449.77;124356;1099;104220;-76
2022/08/31 02:50:27;;;;;;;28.23;17.20;;;;;;;19.30;100.00;100449.77;124686;1099;104252;-75
2022/08/31 02:52:59;;;;;;;28.47;16.53;;;;;;;19.25;100.00;100451.55;124707;1099;103310;-76
2022/08/31 02:55:30;;;;;;;30.00;17.10;;;;;;;19.24;100.00;100455.09;124769;1099;104159;-76
2022/08/31 02:58:01;;;;;;;27.90;17.17;;;;;;;19.22;100.00;100459.54;124313;1099;104233;-76
2022/08/31 03:00:33;;;;;;;30.87;16.70;;;;;;;19.22;100.00;100456.88;124520;1099;104281;-76
2022/08/31 03:03:05;;;;;;;28.70;17.67;;;;;;;19.19;100.00;100456.88;124720;1099;102806;-77
2022/08/31 03:05:36;;;;;;;26.17;16.47;;;;;;;19.19;100.00;100457.75;124679;1099;102972;-76
2022/08/31 03:08:08;;;;;;;30.40;17.27;;;;;;;19.17;100.00;100458.66;124811;1099;104169;-76
2022/08/31 03:10:40;;;;;;;29.13;17.43;;;;;;;19.16;100.00;100457.75;124712;1099;102651;-76
2022/08/31 03:13:11;;;;;;;28.73;15.63;;;;;;;19.14;100.00;100450.69;124824;1099;104180;-76
2022/08/31 03:15:42;;;;;;;29.60;16.37;;;;;;;19.12;100.00;100460.41;124650;1099;104307;-76
2022/08/31 03:18:14;;;;;;;30.97;16.83;;;;;;;19.10;100.00;100463.08;124708;1099;104249;-76
2022/08/31 03:20:45;;;;;;;28.37;16.63;;;;;;;19.09;100.00;100473.71;124270;1099;104166;-76
2022/08/31 03:23:16;;;;;;;30.60;17.57;;;;;;;19.07;100.00;100487.00;124751;1099;104300;-77
2022/08/31 03:25:47;;;;;;;29.25;16.65;;;;;;;19.07;100.00;100475.49;124312;1099;104335;-78
2022/08/31 03:28:19;;;;;;;25.75;16.40;;;;;;;19.07;100.00;100484.34;124775;1098;102893;-76
2022/08/31 03:31:05;;;;;;;29.67;17.50;;;;;;;19.06;100.00;100476.37;124749;1099;104233;-76
2022/08/31 03:33:37;;;;;;;27.27;16.12;;;;;;;19.04;100.00;100477.27;124725;1099;104262;-76
2022/08/31 03:36:08;;;;;;;27.45;16.95;;;;;;;19.04;100.00;100479.03;124785;1099;102228;-76
2022/08/31 03:38:40;;;;;;;29.97;17.27;;;;;;;19.04;100.00;100484.34;124696;1099;104197;-76
2022/08/31 03:41:16;;;;;;;26.43;17.03;;;;;;;19.03;100.00;100483.47;124731;1099;102197;-76
2022/08/31 03:43:47;;;;;;;27.83;17.13;;;;;;;19.02;100.00;100484.34;124809;1099;104394;-77
2022/08/31 03:46:19;;;;;;;30.43;17.00;;;;;;;19.02;100.00;100487.00;124707;1099;104326;-76
2022/08/31 03:48:50;;;;;;;29.57;16.20;;;;;;;18.97;100.00;100478.14;124762;1099;102027;-76
2022/08/31 03:51:22;;;;;;;31.13;17.43;;;;;;;19.00;100.00;100493.23;124730;1099;104223;-76
2022/08/31 03:53:53;;;;;;;29.00;16.37;;;;;;;18.98;100.00;100485.25;124759;1099;102899;-76
2022/08/31 03:56:24;;;;;;;30.00;16.90;;;;;;;18.98;100.00;100487.91;124771;1099;104239;-77
2022/08/31 03:58:55;;;;;;;26.07;16.47;;;;;;;18.97;100.00;100483.46;124744;1099;102787;-76
2022/08/31 04:01:42;;;;;;;28.43;16.83;;;;;;;18.98;100.00;100487.00;124717;1099;104070;-76
2022/08/31 04:04:33;;;;;;;30.77;17.10;;;;;;;19.01;100.00;100487.00;124732;1099;102845;-76
2022/08/31 04:07:40;;;;;;;32.90;16.90;;;;;;;19.03;100.00;100485.25;124228;1102;104390;-78
2022/08/31 04:10:30;;;;;;;30.00;17.77;;;;;;;19.04;100.00;100487.91;124774;1098;104133;-78
2022/08/31 04:13:34;;;;;;;30.13;16.93;;;;;;;19.06;100.00;100497.64;124419;1099;108311;-77
2022/08/31 04:16:34;;;;;;;29.07;16.83;;;;;;;19.09;100.00;100500.30;124607;1099;104329;-76
2022/08/31 04:19:24;;;;;;;28.80;16.57;;;;;;;19.11;100.00;100496.77;124778;1099;102889;-77
2022/08/31 04:22:03;;;;;;;26.77;16.00;;;;;;;19.13;100.00;100497.65;124745;1099;102198;-77
2022/08/31 04:24:37;;;;;;;30.33;17.07;;;;;;;19.16;100.00;100499.44;124862;1099;103001;-76
2022/08/31 04:27:08;;;;;;;27.33;16.20;;;;;;;19.16;100.00;100491.45;124712;1098;104242;-78
2022/08/31 04:29:41;;;;;;;30.00;16.53;;;;;;;19.18;100.00;100497.66;124742;1099;104223;-76
2022/08/31 04:32:12;;;;;;;27.82;16.35;;;;;;;19.18;100.00;100495.90;124720;1099;104300;-77
2022/08/31 04:34:44;;;;;;;28.97;17.00;;;;;;;19.23;100.00;100493.24;124763;1098;104173;-77
2022/08/31 04:37:16;;;;;;;26.13;16.57;;;;;;;19.26;100.00;100500.31;124751;1099;104166;-77
2022/08/31 04:39:47;;;;;;;26.50;15.57;;;;;;;19.28;100.00;100499.44;124723;1099;104054;-77
2022/08/31 04:42:19;;;;;;;29.00;16.93;;;;;;;19.29;100.00;100501.23;124700;1099;104345;-77
2022/08/31 04:44:50;;;;;;;28.00;16.50;;;;;;;19.35;100.00;100500.31;124789;1098;102387;-76
2022/08/31 04:47:22;;;;;;;29.23;16.03;;;;;;;19.38;100.00;100501.22;124720;1099;104249;-76
2022/08/31 04:49:53;;;;;;;28.70;16.30;;;;;;;19.42;100.00;100499.44;124662;1099;104305;-77
2022/08/31 04:52:24;;;;;;;28.93;16.03;;;;;;;19.45;100.00;100487.92;124734;1099;104096;-77
2022/08/31 04:54:55;;;;;;;28.40;15.90;;;;;;;19.48;100.00;100496.77;124743;1099;104280;-76
2022/08/31 04:57:27;;;;;;;29.90;15.73;;;;;;;19.48;100.00;100499.44;124358;1098;104258;-77
2022/08/31 05:00:02;;;;;;;31.63;16.33;;;;;;;19.49;100.00;100498.52;124774;1099;102365;-78
2022/08/31 05:03:06;;;;;;;26.07;15.50;;;;;;;19.51;100.00;100490.54;124441;1099;104226;-77
2022/08/31 05:05:41;;;;;;;33.17;17.57;;;;;;;19.52;100.00;100493.20;124696;1099;102065;-77
2022/08/31 05:08:15;;;;;;;32.57;17.23;;;;;;;19.53;100.00;100488.78;124734;1099;102861;-77
2022/08/31 05:10:48;;;;;;;30.68;16.75;;;;;;;19.55;100.00;100489.66;124736;1099;104204;-76
2022/08/31 05:13:19;;;;;;;27.07;16.47;;;;;;;19.56;100.00;100499.42;124724;1099;104255;-77
2022/08/31 05:15:50;;;;;;;31.57;16.93;;;;;;;19.56;100.00;100492.32;124698;1099;104668;-77
2022/08/31 05:18:25;;;;;;;34.75;16.50;;;;;;;19.57;100.00;100496.77;124259;1103;102385;-77
2022/08/31 05:21:07;;;;;;;30.00;17.10;;;;;;;19.58;100.00;100489.66;124773;1099;102813;-77
2022/08/31 05:23:40;;;;;;;28.00;16.50;;;;;;;19.60;100.00;100497.64;124829;1099;104321;-78
2022/08/31 05:26:15;;;;;;;27.57;16.17;;;;;;;19.62;100.00;100499.42;124784;1099;104185;-78
2022/08/31 05:28:49;;;;;;;28.50;16.33;;;;;;;19.67;100.00;100507.40;124739;1099;104195;-77
2022/08/31 05:31:22;;;;;;;28.43;15.27;;;;;;;19.68;99.74;100504.73;124842;1099;102937;-77
2022/08/31 05:33:55;;;;;;;32.33;17.20;;;;;;;19.73;100.00;100504.73;124720;1099;104363;-77
2022/08/31 05:36:34;;;;;;;29.50;16.57;;;;;;;19.78;99.48;100499.43;124723;1099;104310;-77
2022/08/31 05:39:10;;;;;;;32.47;17.03;;;;;;;19.84;99.39;100502.95;124855;1098;102300;-77
2022/08/31 05:41:45;;;;;;;29.20;16.50;;;;;;;19.91;99.51;100503.81;124715;1099;104249;-77
2022/08/31 05:44:19;;;;;;;31.43;16.07;;;;;;;19.97;99.89;100500.27;124707;1099;104235;-78
2022/08/31 05:46:51;;;;;;;30.23;16.37;;;;;;;20.02;99.77;100499.34;124770;1099;101842;-77
2022/08/31 05:49:23;;;;;;;26.87;15.93;;;;;;;20.08;99.92;100507.31;124723;1099;102913;-77
2022/08/31 05:51:55;;;;;;;32.40;15.37;;;;;;;20.13;98.72;100509.08;124847;1099;104220;-78
2022/08/31 05:54:26;;;;;;;30.43;15.03;;;;;;;20.16;98.46;100501.95;124754;1099;104295;-77
2022/08/31 05:56:58;;;;;;;29.03;15.43;;;;;;;20.22;98.60;100506.39;124806;1099;104283;-77
2022/08/31 05:59:30;;;;;;;27.43;14.33;;;;;;;20.27;98.73;100507.24;124734;1099;104630;-77
2022/08/31 06:02:03;;;;;;;28.10;14.47;;;;;;;20.33;98.68;100511.67;124853;1099;104288;-77
2022/08/31 06:04:37;;;;;;;28.95;14.35;;;;;;;20.36;98.80;100515.20;124735;1098;103225;-77
2022/08/31 06:07:09;;;;;;;27.17;13.87;;;;;;;20.41;98.74;100508.09;124797;1099;104267;-77
2022/08/31 06:09:48;;;;;;;27.53;12.60;;;;;;;20.42;96.53;100512.51;124723;1099;104092;-77
2022/08/31 06:12:25;;;;;;;26.95;13.20;;;;;;;20.46;97.49;100519.61;124742;1099;104252;-77
2022/08/31 06:14:56;;;;;;;22.07;12.20;;;;;;;20.50;96.41;100516.93;124896;1099;103263;-77
2022/08/31 06:17:28;;;;;;;26.00;11.57;;;;;;;20.54;95.63;100508.04;124831;1099;104175;-77
2022/08/31 06:20:00;;;;;;;24.87;11.87;;;;;;;20.62;96.08;100511.54;124779;1099;104178;-77
2022/08/31 06:22:31;;;;;;;24.17;11.23;;;;;;;20.67;95.05;100514.22;124692;1099;102357;-79
2022/08/31 06:25:05;;;;;;;28.03;12.17;;;;;;;20.72;94.70;100518.61;124715;1099;104326;-77
2022/08/31 06:27:37;;;;;;;24.47;11.27;;;;;;;20.78;95.60;100518.57;124781;1099;104213;-78
2022/08/31 06:30:11;;;;;;;25.03;11.50;;;;;;;20.84;94.15;100517.66;124732;1099;104268;-78
2022/08/31 06:32:43;;;;;;;21.80;10.10;;;;;;;20.88;92.93;100518.52;125804;1099;104176;-78
2022/08/31 06:35:14;;;;;;;24.87;10.70;;;;;;;20.94;92.13;100513.14;124709;1099;102413;-78
2022/08/31 06:37:59;;;;;;;20.63;10.20;;;;;;;21.03;92.76;100510.41;124787;1099;102139;-79
2022/08/31 06:41:10;;;;;;;25.10;10.45;;;;;;;21.11;92.02;100511.23;124604;1099;104195;-78
2022/08/31 06:43:53;;;;;;;20.80;9.90;;;;;;;21.19;91.08;100501.41;124854;1099;102784;-79
2022/08/31 06:46:43;;;;;;;21.37;10.07;;;;;;;21.32;91.27;100503.98;124746;1099;118556;-77
2022/08/31 06:49:24;;;;;;;22.33;10.27;;;;;;;21.44;89.38;100498.53;124831;1099;104163;-78
2022/08/31 06:51:59;;;;;;;21.33;10.03;;;;;;;21.56;90.86;100496.67;124823;1099;104287;-79
2022/08/31 06:54:31;;;;;;;20.37;9.13;;;;;;;21.68;90.24;100497.43;124798;1099;104207;-79
2022/08/31 06:57:20;;;;;;;20.97;10.17;;;;;;;21.78;90.53;100497.34;124800;1098;104179;-78
2022/08/31 07:00:24;;;;;;;28.83;9.80;;;;;;;21.89;90.21;100501.67;124809;1099;104156;-79
2022/08/31 07:03:23;;;;;;;19.03;9.37;;;;;;;22.02;89.76;100504.21;124783;1099;104411;-78
2022/08/31 07:05:55;;;;;;;23.00;9.33;;;;;;;22.17;88.38;100500.45;124736;1099;103640;-78
2022/08/31 07:08:26;;;;;;;19.03;8.40;;;;;;;22.32;87.39;100504.78;124789;1098;102865;-78
2022/08/31 07:10:58;;;;;;;16.67;8.73;;;;;;;22.47;87.35;100512.60;124734;1099;104195;-78
2022/08/31 07:13:30;;;;;;;19.37;8.90;;;;;;;22.64;87.45;100501.67;124784;1099;104217;-78
2022/08/31 07:16:10;;;;;;;16.27;8.27;;;;;;;22.78;87.87;100502.36;124740;1099;104159;-77
2022/08/31 07:18:44;;;;;;;16.80;8.00;;;;;;;22.97;86.92;100502.95;124762;1099;102234;-79
2022/08/31 07:21:20;;;;;;;16.17;8.10;;;;;;;23.16;86.68;100494.67;124779;1099;104208;-78
2022/08/31 07:23:52;;;;;;;15.87;7.57;;;;;;;23.26;83.81;100485.56;124757;1099;104271;-78
2022/08/31 07:26:26;;;;;;;16.20;6.97;;;;;;;23.41;82.10;100484.42;124797;1098;104398;-78
2022/08/31 07:28:58;;;;;;;13.67;6.90;;;;;;;23.59;83.34;100476.97;124809;1099;104255;-78
2022/08/31 07:31:42;;;;;;;13.53;6.60;;;;;;;23.72;82.76;100485.65;124754;1099;102828;-79
2022/08/31 07:34:17;;;;;;;16.50;7.33;;;;;;;23.88;81.57;100478.26;124822;1099;102891;-78
2022/08/31 07:42:48;;;;;;;14.77;5.80;;;;;;;24.09;77.83;100487.64;124797;1099;102768;-78
2022/08/31 07:45:22;;;;;;;14.53;6.03;;;;;;;24.17;78.59;100488.39;124868;1099;104207;-78
2022/08/31 07:47:56;;;;;;;14.60;6.50;;;;;;;24.34;77.21;100491.59;124834;1099;104274;-78
2022/08/31 07:50:30;;;;;;;12.40;6.13;;;;;;;24.55;77.55;100486.67;124820;1099;104201;-78
2022/08/31 07:53:24;;;;;;;9.90;5.60;;;;;;;24.68;77.00;100482.84;124531;1099;104223;-80
2022/08/31 07:56:16;;;;;;;11.43;5.37;;;;;;;24.86;73.24;100494.06;124711;1099;104227;-79
2022/08/31 07:58:48;;;;;;;12.90;5.90;;;;;;;24.99;75.55;100479.41;124776;1099;104165;-78
2022/08/31 08:01:20;;;;;;;16.73;6.60;;;;;;;25.13;74.52;100479.07;124890;1099;102381;-78
2022/08/31 08:03:52;;;;;;;12.50;6.17;;;;;;;25.27;73.65;100476.94;124765;1099;104612;-78
2022/08/31 08:06:42;;;;;;;15.67;6.33;;;;;;;25.31;72.47;100475.09;124809;1099;104192;-79
2022/08/31 08:09:18;;;;;;;11.53;5.67;;;;;;;25.34;70.87;100475.01;124763;1099;102800;-78
2022/08/31 08:12:07;;;;;;;15.20;6.17;;;;;;;25.44;72.12;100468.45;124767;1099;104156;-79
2022/08/31 08:14:47;;;;;;;15.00;6.20;;;;;;;25.44;69.36;100463.08;124795;1099;104265;-79
2022/08/31 08:17:29;;;;;;;15.27;5.90;;;;;;;25.51;70.45;100463.83;124698;1099;102951;-79
2022/08/31 08:20:14;;;;;;;12.63;5.93;;;;;;;25.59;69.76;100466.30;124691;1098;104185;-79
2022/08/31 08:22:47;;;;;;;11.28;6.00;;;;;;;25.59;68.49;100459.12;124724;1099;104232;-79
2022/08/31 08:25:41;;;;;;;16.27;6.07;;;;;;;25.64;67.93;100459.86;124708;1099;104159;-80
2022/08/31 08:28:32;;;;;;;16.77;6.53;;;;;;;25.69;67.63;100464.23;124768;1099;104286;-78
2022/08/31 08:31:05;;;;;;;15.57;7.37;;;;;;;25.72;67.18;100461.47;124877;1099;102775;-79
2022/08/31 08:33:37;;;;;;;16.03;7.27;;;;;;;25.79;67.57;100463.08;124827;1098;102790;-78
2022/08/31 08:36:09;;;;;;;15.57;6.63;;;;;;;25.92;67.30;100458.22;124806;1099;103282;-78
2022/08/31 08:38:45;;;;;;;21.30;7.67;;;;;;;25.94;66.51;100462.61;124724;1099;102881;-78
2022/08/31 08:41:19;;;;;;;16.37;6.97;;;;;;;25.98;66.60;100460.77;124759;1099;104225;-79
2022/08/31 08:43:53;;;;;;;15.97;7.13;;;;;;;25.99;66.23;100465.20;124869;1099;101928;-79
2022/08/31 08:46:31;;;;;;;20.67;7.70;;;;;;;26.00;65.68;100473.22;124852;1099;104201;-79
2022/08/31 08:49:09;;;;;;;19.77;7.60;;;;;;;25.99;65.70;100466.10;124756;1099;104230;-79
2022/08/31 08:51:41;;;;;;;14.80;7.20;;;;;;;25.98;65.34;100461.64;125648;1099;104281;-79
2022/08/31 08:54:21;;;;;;;16.90;7.33;;;;;;;25.99;64.44;100459.83;124868;1099;104255;-79
2022/08/31 08:56:53;;;;;;;15.63;7.00;;;;;;;25.98;63.97;100460.77;124816;1099;104283;-78
2022/08/31 08:59:24;;;;;;;15.87;7.13;;;;;;;25.91;63.59;100461.83;124745;1099;102988;-79
2022/08/31 09:02:00;;;;;;;18.07;7.03;;;;;;;25.85;63.44;100470.94;124877;1099;104162;-79
2022/08/31 09:05:03;;;;;;;17.53;6.60;;;;;;;25.81;62.53;100471.97;124819;1099;104252;-79
2022/08/31 09:08:16;;;;;;;19.40;7.10;;;;;;;25.65;62.17;100472.38;125623;1099;102112;-79
2022/08/31 09:11:05;;;;;;;12.00;5.90;;;;;;;25.67;62.74;100468.78;125633;1099;104166;-79
2022/08/31 09:13:47;;;;;;;17.77;6.87;;;;;;;25.72;63.37;100467.72;124769;1098;104265;-79
2022/08/31 09:16:37;;;;;;;18.00;6.83;;;;;;;25.74;62.61;100459.61;124790;1099;104277;-78
2022/08/31 09:19:13;;;;;;;15.00;6.13;;;;;;;25.80;62.64;100456.75;124751;1099;104236;-79
2022/08/31 09:21:48;;;;;;;14.00;6.27;;;;;;;25.73;60.68;100457.87;124788;1099;104647;-79
2022/08/31 09:24:22;;;;;;;12.43;5.90;;;;;;;25.71;61.00;100463.28;124856;1099;102810;-79
2022/08/31 09:27:17;;;;;;;12.53;6.10;;;;;;;25.65;60.47;100466.14;124810;1099;104277;-79
2022/08/31 09:29:55;;;;;;;13.17;6.00;;;;;;;25.59;60.77;100471.68;125662;1099;104221;-79
2022/08/31 09:32:30;;;;;;;10.63;5.57;;;;;;;25.59;61.55;100471.68;125726;1098;104211;-78
2022/08/31 09:35:04;;;;;;;10.40;5.33;;;;;;;25.56;61.16;100471.76;124849;1098;104230;-78
2022/08/31 09:37:39;;;;;;;10.70;5.23;;;;;;;25.56;60.39;100477.13;124851;1098;104153;-79
2022/08/31 09:40:17;;;;;;;11.60;5.80;;;;;;;25.52;60.58;100457.50;124799;1099;102813;-79
2022/08/31 09:43:01;;;;;;;13.50;5.80;;;;;;;25.59;60.83;100450.19;124838;1099;104370;-78
2022/08/31 09:45:35;;;;;;;13.17;5.40;;;;;;;25.64;60.31;100450.93;124888;1099;104233;-79
2022/08/31 09:48:08;;;;;;;14.13;5.80;;;;;;;25.70;60.50;100449.89;124814;1099;104211;-79
2022/08/31 09:50:43;;;;;;;9.47;5.10;;;;;;;25.74;60.23;100439.02;124764;1098;102854;-79
2022/08/31 09:56:19;;;;;;;14.50;5.70;;;;;;;25.87;59.71;100442.23;124790;1098;104144;-78
2022/08/31 09:58:54;;;;;;;10.40;4.57;;;;;;;25.82;59.67;100436.98;124891;1098;104169;-79
2022/08/31 10:01:30;;;;;;;9.30;5.10;;;;;;;25.82;59.66;100442.36;125722;1099;101934;-78
2022/08/31 10:04:18;;;;;;;14.43;4.87;;;;;;;25.91;59.97;100437.64;124854;1099;102197;-79
2022/08/31 10:06:56;;;;;;;11.63;4.80;;;;;;;25.87;58.44;100449.39;124805;1099;104274;-79
2022/08/31 10:09:37;;;;;;;7.83;4.70;;;;;;;25.79;55.56;100442.45;124825;1099;104201;-80
2022/08/31 10:12:16;;;;;;;9.13;4.20;;;;;;;25.84;58.54;100453.06;125733;1099;104328;-79
2022/08/31 10:14:53;;;;;;;12.93;4.83;;;;;;;25.94;58.16;100453.67;124743;1099;104261;-79
2022/08/31 10:17:29;;;;;;;7.43;4.40;;;;;;;26.00;57.72;100461.59;124837;1099;104176;-79
2022/08/31 10:20:06;;;;;;;10.57;5.00;;;;;;;26.05;57.31;100465.03;124833;1099;103010;-79
2022/08/31 10:22:41;;;;;;;11.73;5.00;;;;;;;26.11;57.20;100466.67;124896;1099;104156;-79
2022/08/31 10:25:31;;;;;;;13.53;4.63;;;;;;;26.17;57.26;100464.67;124772;1099;104213;-78
2022/08/31 10:28:11;;;;;;;7.60;4.00;;;;;;;26.27;56.49;100464.40;124815;1099;104188;-79
2022/08/31 10:30:50;;;;;;;10.57;4.67;;;;;;;26.27;56.87;100450.95;124804;1099;104156;-79
2022/08/31 10:35:00;;;;;;;10.67;4.60;;;;;;;26.25;56.08;100450.13;124780;1099;102129;-79
2022/08/31 10:36:17;;;;;;;8.47;4.27;;;;;;;26.21;55.78;100460.10;124807;1099;104663;-78
2022/08/31 10:38:53;;;;;;;7.80;4.23;;;;;;;26.24;55.67;100456.42;124793;1099;102059;-79
2022/08/31 10:41:29;;;;;;;8.13;4.37;;;;;;;26.25;55.08;100448.30;124814;1099;102758;-79
2022/08/31 10:44:23;;;;;;;12.47;4.57;;;;;;;26.24;54.57;100445.66;124861;1099;104159;-79
2022/08/31 10:47:01;;;;;;;13.50;4.65;;;;;;;26.29;55.14;100455.37;124893;1098;104192;-78
2022/08/31 10:49:37;;;;;;;7.40;4.43;;;;;;;26.36;55.61;100458.74;124844;1099;104322;-79
2022/08/31 10:52:17;;;;;;;10.33;4.67;;;;;;;26.40;55.26;100464.90;124861;1099;102119;-78
2022/08/31 10:54:56;;;;;;;14.53;4.90;;;;;;;26.45;54.15;100452.21;124849;1099;104232;-79
2022/08/31 10:57:36;;;;;;;9.43;4.33;;;;;;;26.49;54.13;100451.16;124807;1099;104236;-78
2022/08/31 11:00:40;;;;;;;11.23;5.13;;;;;;;26.52;54.63;100449.28;125567;1099;104169;-79
2022/08/31 11:03:16;;;;;;;10.87;4.30;;;;;;;26.48;54.58;100441.35;124773;1099;104166;-79
2022/08/31 11:05:55;;;;;;;10.23;4.70;;;;;;;26.46;54.60;100432.42;124809;1099;104159;-79
2022/08/31 11:08:49;;;;;;;11.67;4.80;;;;;;;26.50;54.40;100423.34;124828;1099;101894;-79
2022/08/31 11:11:30;;;;;;;8.87;4.80;;;;;;;26.50;53.70;100426.03;124745;1098;104239;-79
2022/08/31 11:14:31;;;;;;;10.40;4.90;;;;;;;26.53;54.18;100426.81;124841;1097;104216;-79
2022/08/31 11:17:28;;;;;;;9.90;5.30;;;;;;;26.56;53.81;100444.67;124620;1099;104404;-80
2022/08/31 11:20:19;;;;;;;12.53;5.30;;;;;;;26.35;53.70;100438.14;124818;1099;104310;-79
2022/08/31 11:23:17;;;;;;;15.90;5.33;;;;;;;26.29;54.33;100436.54;125594;1099;112832;-78
2022/08/31 11:26:25;;;;;;;10.80;5.33;;;;;;;26.21;53.87;100437.69;124855;1098;102136;-79
2022/08/31 11:29:02;;;;;;;11.83;5.17;;;;;;;26.09;53.51;100436.27;124869;1098;104267;-78
2022/08/31 11:31:35;;;;;;;7.80;4.43;;;;;;;26.06;53.20;100437.22;124850;1099;104464;-79
2022/08/31 11:34:14;;;;;;;10.10;4.70;;;;;;;25.99;53.57;100443.70;124812;1099;104280;-80
2022/08/31 11:36:50;;;;;;;10.63;4.53;;;;;;;25.99;54.22;100451.76;124867;1099;104241;-78
2022/08/31 11:39:39;;;;;;;8.87;4.50;;;;;;;25.95;53.41;100444.70;124850;1099;104204;-78
2022/08/31 11:42:34;;;;;;;11.10;4.90;;;;;;;25.97;53.61;100446.42;124827;1099;104156;-79
2022/08/31 11:45:27;;;;;;;9.90;4.80;;;;;;;26.27;53.93;100443.78;124855;1099;104440;-79
2022/08/31 11:48:04;;;;;;;9.50;4.73;;;;;;;26.49;54.46;100424.27;124893;1099;104235;-79
2022/08/31 11:51:05;;;;;;;9.73;4.55;;;;;;;26.64;54.23;100425.59;124790;1099;104201;-79